Time;durP1;ratioP1;P1;durP2;ratioP2;P2;SDS_P1;SDS_P2;PMS_P1;PMS_P2;Temp;Humidity;BMP_temperature;BMP_pressure;BME280_temperature;BME280_humidity;BME280_pressure;Samples;Min_cycle;Max_cycle;Signal;HPM_P1;HPM_P2
2023/05/23 00:01:32;;;;;;;;;;;13.20;70.10;;;;;;5087510;28;19928;-73
2023/05/23 00:03:58;;;;;;;;;;;13.20;70.70;;;;;;5088216;28;19916;-73
2023/05/23 00:06:23;;;;;;;;;;;13.10;70.20;;;;;;5087785;28;19912;-73
2023/05/23 00:08:49;;;;;;;;;;;13.10;70.10;;;;;;5087606;28;19923;-73
2023/05/23 00:11:15;;;;;;;;;;;13.10;70.10;;;;;;5087571;28;20154;-73
2023/05/23 00:13:41;;;;;;;;;;;13.00;70.20;;;;;;5087669;28;19908;-74
2023/05/23 00:16:08;;;;;;;;;;;13.00;70.20;;;;;;5087761;28;20002;-74
2023/05/23 00:18:34;;;;;;;;;;;13.00;70.20;;;;;;5086251;28;20300;-74
2023/05/23 00:21:01;;;;;;;;;;;13.00;70.30;;;;;;5091216;28;19912;-73
2023/05/23 00:23:28;;;;;;;;;;;13.00;70.30;;;;;;5091274;28;19955;-73
2023/05/23 00:25:57;;;;;;;;;;;13.00;70.20;;;;;;5091195;28;19939;-73
2023/05/23 00:28:22;;;;;;;;;;;13.00;70.20;;;;;;5091051;28;19912;-74
2023/05/23 00:30:48;;;;;;;;;;;13.00;70.20;;;;;;5091144;28;19958;-73
2023/05/23 00:33:15;;;;;;;;;;;13.00;70.20;;;;;;5091030;28;19912;-73
2023/05/23 00:35:41;;;;;;;;;;;13.00;70.20;;;;;;5091053;28;20407;-74
2023/05/23 00:38:06;;;;;;;;;;;13.00;70.20;;;;;;5090856;28;19912;-73
2023/05/23 00:40:35;;;;;;;;;;;13.00;70.10;;;;;;5090801;28;19915;-73
2023/05/23 00:43:01;;;;;;;;;;;12.90;70.10;;;;;;5090755;28;19912;-74
2023/05/23 00:45:26;;;;;;;;;;;13.00;70.20;;;;;;5090719;28;20297;-73
2023/05/23 00:47:53;;;;;;;;;;;13.00;70.20;;;;;;5089396;28;20477;-73
2023/05/23 00:50:19;;;;;;;;;;;13.10;70.10;;;;;;5091123;28;19912;-74
2023/05/23 00:52:46;;;;;;;;;;;13.10;70.00;;;;;;5090698;28;19966;-73
2023/05/23 00:55:13;;;;;;;;;;;13.20;69.90;;;;;;5089608;28;19908;-73
2023/05/23 00:57:39;;;;;;;;;;;13.30;69.80;;;;;;5090475;28;19920;-73
2023/05/23 01:00:07;;;;;;;;;;;13.30;69.70;;;;;;5090407;28;19930;-74
2023/05/23 01:02:35;;;;;;;;;;;13.20;69.70;;;;;;5090355;28;19973;-73
2023/05/23 01:05:01;;;;;;;;;;;13.20;69.70;;;;;;5090990;28;19920;-74
2023/05/23 01:07:26;;;;;;;;;;;13.20;69.80;;;;;;5090245;28;19965;-73
2023/05/23 01:09:52;;;;;;;;;;;13.20;69.90;;;;;;5090262;28;20698;-73
2023/05/23 01:12:23;;;;;;;;;;;13.20;69.70;;;;;;5090591;28;19912;-73
2023/05/23 01:15:01;;;;;;;;;;;13.20;69.60;;;;;;5090232;28;19916;-73
2023/05/23 01:17:50;;;;;;;;;;;13.20;69.60;;;;;;5090020;28;19912;-73
2023/05/23 01:20:20;;;;;;;;;;;13.20;69.50;;;;;;5087057;28;19950;-73
2023/05/23 01:23:00;;;;;;;;;;;13.20;69.40;;;;;;5090199;28;19919;-73
2023/05/23 01:25:42;;;;;;;;;;;13.20;69.40;;;;;;5089961;28;19908;-73
2023/05/23 01:28:11;;;;;;;;;;;13.10;69.40;;;;;;5089904;28;19948;-74
2023/05/23 01:30:38;;;;;;;;;;;13.00;69.50;;;;;;5090170;28;19908;-73
2023/05/23 01:33:05;;;;;;;;;;;13.00;69.60;;;;;;5090216;28;19908;-73
2023/05/23 01:35:30;;;;;;;;;;;12.90;69.70;;;;;;5090219;28;19912;-73
2023/05/23 01:37:56;;;;;;;;;;;12.80;69.70;;;;;;5089700;28;19916;-73
2023/05/23 01:40:22;;;;;;;;;;;12.70;69.80;;;;;;5090285;28;19926;-73
2023/05/23 01:42:48;;;;;;;;;;;12.70;69.90;;;;;;5088430;28;19920;-73
2023/05/23 01:45:14;;;;;;;;;;;12.70;70.00;;;;;;5090091;28;19970;-73
2023/05/23 01:47:41;;;;;;;;;;;12.80;70.00;;;;;;5088609;28;19912;-73
2023/05/23 01:50:08;;;;;;;;;;;12.80;69.80;;;;;;5089701;28;19908;-73
2023/05/23 01:52:33;;;;;;;;;;;12.90;69.60;;;;;;5089486;28;19924;-73
2023/05/23 01:54:59;;;;;;;;;;;13.00;69.50;;;;;;5089456;28;19919;-74
2023/05/23 01:57:27;;;;;;;;;;;13.00;69.30;;;;;;5089170;28;19920;-73
2023/05/23 01:59:53;;;;;;;;;;;12.90;69.10;;;;;;5089379;28;20010;-73
2023/05/23 02:02:19;;;;;;;;;;;12.90;69.20;;;;;;5089244;28;20015;-73
2023/05/23 02:04:44;;;;;;;;;;;12.90;69.20;;;;;;5087920;28;20386;-73
2023/05/23 02:07:10;;;;;;;;;;;12.90;69.10;;;;;;5087944;28;19919;-73
2023/05/23 02:09:35;;;;;;;;;;;12.90;69.20;;;;;;5089217;28;19919;-73
2023/05/23 02:12:01;;;;;;;;;;;12.90;69.20;;;;;;5089161;28;20329;-73
2023/05/23 02:14:27;;;;;;;;;;;12.90;69.20;;;;;;5089152;28;19912;-74
2023/05/23 02:16:52;;;;;;;;;;;12.90;69.20;;;;;;5087756;28;20012;-73
2023/05/23 02:19:18;;;;;;;;;;;12.90;69.20;;;;;;5089154;28;20179;-73
2023/05/23 02:21:44;;;;;;;;;;;12.90;69.20;;;;;;5088972;28;19919;-74
2023/05/23 02:24:10;;;;;;;;;;;12.90;69.30;;;;;;5089006;28;20330;-73
2023/05/23 02:26:35;;;;;;;;;;;13.00;69.30;;;;;;5088889;28;19912;-73
2023/05/23 02:29:01;;;;;;;;;;;12.90;69.20;;;;;;5088851;28;19916;-73
2023/05/23 02:31:27;;;;;;;;;;;12.90;69.10;;;;;;5087583;28;20450;-73
2023/05/23 02:33:52;;;;;;;;;;;12.90;69.00;;;;;;5088990;28;20015;-74
2023/05/23 02:36:18;;;;;;;;;;;12.90;69.00;;;;;;5088772;28;20356;-73
2023/05/23 02:38:44;;;;;;;;;;;12.90;69.00;;;;;;5088707;28;19927;-73
2023/05/23 02:41:09;;;;;;;;;;;12.90;69.10;;;;;;5088626;28;19927;-73
2023/05/23 02:43:35;;;;;;;;;;;12.80;69.00;;;;;;5088288;28;19912;-73
2023/05/23 02:46:00;;;;;;;;;;;12.80;69.00;;;;;;5088823;28;19920;-73
2023/05/23 02:48:26;;;;;;;;;;;12.80;69.10;;;;;;5088781;28;19919;-73
2023/05/23 02:50:51;;;;;;;;;;;12.80;69.10;;;;;;5088727;28;20341;-73
2023/05/23 02:53:17;;;;;;;;;;;12.80;69.10;;;;;;5088663;28;19920;-73
2023/05/23 02:55:42;;;;;;;;;;;12.80;69.10;;;;;;5088516;28;19916;-73
2023/05/23 02:58:08;;;;;;;;;;;12.80;69.10;;;;;;5088361;28;19925;-73
2023/05/23 03:00:35;;;;;;;;;;;12.80;69.10;;;;;;5088629;28;19943;-73
2023/05/23 03:03:00;;;;;;;;;;;12.80;69.20;;;;;;5088425;28;19924;-73
2023/05/23 03:05:26;;;;;;;;;;;12.80;69.20;;;;;;5087078;28;19920;-73
2023/05/23 03:07:53;;;;;;;;;;;12.80;69.20;;;;;;5088254;28;19962;-73
2023/05/23 03:10:19;;;;;;;;;;;12.80;69.20;;;;;;5088308;28;19908;-73
2023/05/23 03:12:45;;;;;;;;;;;12.90;69.20;;;;;;5088577;28;20360;-73
2023/05/23 03:15:11;;;;;;;;;;;12.80;69.00;;;;;;5087026;28;19908;-74
2023/05/23 03:17:36;;;;;;;;;;;12.90;69.10;;;;;;5088233;28;19939;-74
2023/05/23 03:20:03;;;;;;;;;;;12.90;69.10;;;;;;5087085;28;19912;-74
2023/05/23 03:22:28;;;;;;;;;;;12.90;69.10;;;;;;5088280;28;19908;-73
2023/05/23 03:24:54;;;;;;;;;;;12.90;69.10;;;;;;5088185;28;20329;-74
2023/05/23 03:27:20;;;;;;;;;;;12.90;69.10;;;;;;5088107;28;19915;-73
2023/05/23 03:29:47;;;;;;;;;;;12.90;69.10;;;;;;5086769;28;20292;-73
2023/05/23 03:32:12;;;;;;;;;;;12.90;69.10;;;;;;5088236;28;19913;-73
2023/05/23 03:34:38;;;;;;;;;;;12.90;69.20;;;;;;5088193;28;19919;-73
2023/05/23 03:37:04;;;;;;;;;;;12.90;69.20;;;;;;5088144;28;20261;-73
2023/05/23 03:39:30;;;;;;;;;;;12.80;69.00;;;;;;5088033;28;19915;-73
2023/05/23 03:41:55;;;;;;;;;;;12.80;69.00;;;;;;5088010;28;19912;-73
2023/05/23 03:44:21;;;;;;;;;;;12.80;69.00;;;;;;5086899;28;20441;-73
2023/05/23 03:46:46;;;;;;;;;;;12.80;69.00;;;;;;5088086;28;19919;-73
2023/05/23 03:49:12;;;;;;;;;;;12.80;69.00;;;;;;5088316;28;19912;-73
2023/05/23 03:51:38;;;;;;;;;;;12.70;69.00;;;;;;5087914;28;20000;-73
2023/05/23 03:54:03;;;;;;;;;;;12.70;69.00;;;;;;5090493;28;19912;-73
2023/05/23 03:56:29;;;;;;;;;;;12.70;69.10;;;;;;5091794;28;19918;-74
2023/05/23 03:58:54;;;;;;;;;;;12.70;69.20;;;;;;5091723;28;19916;-74
2023/05/23 04:01:20;;;;;;;;;;;12.70;69.10;;;;;;5091679;28;19930;-74
2023/05/23 04:03:46;;;;;;;;;;;12.70;69.10;;;;;;5090370;28;19927;-74
2023/05/23 04:06:12;;;;;;;;;;;12.70;69.00;;;;;;5090259;28;19912;-74
2023/05/23 04:08:40;;;;;;;;;;;12.70;69.10;;;;;;5089848;28;19999;-73
2023/05/23 04:11:06;;;;;;;;;;;12.70;69.10;;;;;;5091569;28;19933;-73
2023/05/23 04:13:32;;;;;;;;;;;12.60;69.00;;;;;;5091811;28;20323;-73
2023/05/23 04:16:00;;;;;;;;;;;12.60;69.00;;;;;;5091583;28;19930;-73
2023/05/23 04:18:26;;;;;;;;;;;12.60;69.10;;;;;;5091174;28;20024;-73
2023/05/23 04:20:51;;;;;;;;;;;12.60;69.00;;;;;;5091390;28;20391;-72
2023/05/23 04:23:17;;;;;;;;;;;12.60;69.00;;;;;;5091736;28;19923;-74
2023/05/23 04:25:43;;;;;;;;;;;12.60;69.00;;;;;;5091283;28;19912;-73
2023/05/23 04:28:09;;;;;;;;;;;12.60;69.00;;;;;;5091195;28;19916;-73
2023/05/23 04:30:35;;;;;;;;;;;12.50;68.90;;;;;;5091152;28;19925;-73
2023/05/23 04:33:00;;;;;;;;;;;12.50;68.90;;;;;;5091449;28;19921;-73
2023/05/23 04:35:32;;;;;;;;;;;12.50;68.90;;;;;;5091076;28;19931;-73
2023/05/23 04:37:58;;;;;;;;;;;12.50;69.00;;;;;;5090965;28;19912;-73
2023/05/23 04:40:24;;;;;;;;;;;12.50;69.10;;;;;;5089923;28;20253;-74
2023/05/23 04:42:52;;;;;;;;;;;12.50;69.10;;;;;;5091161;28;19962;-73
2023/05/23 04:45:20;;;;;;;;;;;12.50;69.10;;;;;;5091062;28;19912;-73
2023/05/23 04:47:46;;;;;;;;;;;12.50;69.00;;;;;;5089543;28;20414;-73
2023/05/23 04:50:13;;;;;;;;;;;12.50;69.10;;;;;;5090709;28;19908;-74
2023/05/23 04:52:39;;;;;;;;;;;12.50;69.10;;;;;;5090643;28;20300;-74
2023/05/23 04:55:05;;;;;;;;;;;12.50;69.10;;;;;;5090547;28;19916;-74
2023/05/23 04:57:31;;;;;;;;;;;12.50;69.10;;;;;;5090542;28;19920;-74
2023/05/23 04:59:56;;;;;;;;;;;12.50;69.20;;;;;;5090466;28;20284;-73
2023/05/23 05:02:22;;;;;;;;;;;12.50;69.10;;;;;;5089019;28;19955;-73
2023/05/23 05:04:48;;;;;;;;;;;12.60;69.10;;;;;;5090098;28;19973;-73
2023/05/23 05:07:13;;;;;;;;;;;12.60;69.10;;;;;;5090500;28;20062;-73
2023/05/23 05:09:39;;;;;;;;;;;12.60;69.10;;;;;;5089262;28;19919;-73
2023/05/23 05:12:05;;;;;;;;;;;12.60;69.10;;;;;;5090427;28;19956;-73
2023/05/23 05:14:30;;;;;;;;;;;12.60;69.10;;;;;;5090394;28;19919;-73
2023/05/23 05:16:56;;;;;;;;;;;12.60;69.20;;;;;;5090105;28;19934;-74
2023/05/23 05:19:24;;;;;;;;;;;12.70;69.20;;;;;;5090196;28;20379;-74
2023/05/23 05:21:51;;;;;;;;;;;12.70;69.20;;;;;;5088821;28;19919;-74
2023/05/23 05:24:19;;;;;;;;;;;12.70;69.10;;;;;;5090109;28;19915;-74
2023/05/23 05:26:45;;;;;;;;;;;12.70;69.00;;;;;;5090162;28;19912;-74
2023/05/23 05:29:12;;;;;;;;;;;12.60;69.00;;;;;;5089916;28;19908;-74
2023/05/23 05:31:37;;;;;;;;;;;12.60;69.10;;;;;;5090230;28;19919;-74
2023/05/23 05:34:03;;;;;;;;;;;12.60;69.10;;;;;;5089802;28;19912;-74
2023/05/23 05:36:28;;;;;;;;;;;12.60;69.10;;;;;;5089872;28;20353;-73
2023/05/23 05:38:54;;;;;;;;;;;12.60;69.20;;;;;;5089566;28;19962;-74
2023/05/23 05:41:21;;;;;;;;;;;12.60;69.20;;;;;;5089979;28;19954;-74
2023/05/23 05:43:46;;;;;;;;;;;12.70;69.30;;;;;;5089958;28;19908;-74
2023/05/23 05:46:12;;;;;;;;;;;12.70;69.20;;;;;;5089709;28;19908;-73
2023/05/23 05:48:37;;;;;;;;;;;12.70;69.20;;;;;;5089541;28;19923;-74
2023/05/23 05:51:03;;;;;;;;;;;12.80;69.20;;;;;;5089594;28;19978;-74
2023/05/23 05:53:29;;;;;;;;;;;12.80;69.20;;;;;;5089541;28;19912;-74
2023/05/23 05:55:54;;;;;;;;;;;12.80;69.20;;;;;;5088311;28;19912;-75
2023/05/23 05:58:20;;;;;;;;;;;12.80;69.30;;;;;;5088083;28;19920;-74
2023/05/23 06:00:47;;;;;;;;;;;12.90;69.30;;;;;;5089307;28;19999;-74
2023/05/23 06:03:14;;;;;;;;;;;12.90;69.40;;;;;;5089023;28;20033;-74
2023/05/23 06:05:40;;;;;;;;;;;13.00;69.40;;;;;;5087425;28;19951;-74
2023/05/23 06:08:05;;;;;;;;;;;13.10;69.40;;;;;;5087674;28;19916;-74
2023/05/23 06:10:31;;;;;;;;;;;13.10;69.30;;;;;;5087770;28;20288;-74
2023/05/23 06:12:57;;;;;;;;;;;13.20;69.40;;;;;;5089184;28;20284;-74
2023/05/23 06:15:23;;;;;;;;;;;13.30;69.40;;;;;;5089117;28;20275;-74
2023/05/23 06:17:48;;;;;;;;;;;13.30;69.30;;;;;;5086713;28;19922;-74
2023/05/23 06:20:14;;;;;;;;;;;13.40;69.40;;;;;;5089051;28;19920;-74
2023/05/23 06:22:39;;;;;;;;;;;13.40;69.40;;;;;;5088765;28;19957;-73
2023/05/23 06:25:05;;;;;;;;;;;13.50;69.40;;;;;;5088787;28;19961;-73
2023/05/23 06:27:31;;;;;;;;;;;13.50;69.40;;;;;;5088587;28;19919;-73
2023/05/23 06:29:56;;;;;;;;;;;13.60;69.40;;;;;;5088707;28;19917;-73
2023/05/23 06:32:22;;;;;;;;;;;13.70;69.50;;;;;;5088511;28;19977;-74
2023/05/23 06:34:48;;;;;;;;;;;13.80;69.50;;;;;;5088579;28;20372;-73
2023/05/23 06:37:13;;;;;;;;;;;13.90;69.50;;;;;;5088247;28;19942;-73
2023/05/23 06:39:39;;;;;;;;;;;14.00;69.50;;;;;;5087869;28;19913;-74
2023/05/23 06:42:04;;;;;;;;;;;14.10;69.40;;;;;;5090611;28;19912;-72
2023/05/23 06:44:30;;;;;;;;;;;14.20;69.50;;;;;;5088360;28;19916;-71
2023/05/23 06:46:56;;;;;;;;;;;14.20;69.40;;;;;;5087773;28;19927;-70
2023/05/23 06:49:22;;;;;;;;;;;14.30;69.50;;;;;;5087798;28;19916;-71
2023/05/23 06:51:48;;;;;;;;;;;14.30;69.40;;;;;;5087749;28;20186;-71
2023/05/23 06:54:13;;;;;;;;;;;14.40;69.50;;;;;;5087579;28;20269;-72
2023/05/23 06:56:39;;;;;;;;;;;14.40;69.50;;;;;;5087724;28;20079;-71
2023/05/23 06:59:04;;;;;;;;;;;14.50;69.50;;;;;;5087429;28;19912;-71
2023/05/23 07:01:30;;;;;;;;;;;14.50;69.50;;;;;;5087102;28;19916;-72
2023/05/23 07:03:56;;;;;;;;;;;14.50;69.50;;;;;;5087568;28;20004;-71
2023/05/23 07:06:21;;;;;;;;;;;14.50;69.50;;;;;;5087545;28;19927;-72
2023/05/23 07:08:47;;;;;;;;;;;14.60;69.50;;;;;;5087682;28;19934;-73
2023/05/23 07:11:12;;;;;;;;;;;14.60;69.50;;;;;;5087793;28;19916;-72
2023/05/23 07:13:38;;;;;;;;;;;14.70;69.60;;;;;;5087909;28;19916;-73
2023/05/23 07:16:04;;;;;;;;;;;14.70;69.60;;;;;;5085939;28;20388;-73
2023/05/23 07:18:29;;;;;;;;;;;14.80;69.70;;;;;;5088005;28;19920;-73
2023/05/23 07:20:55;;;;;;;;;;;14.90;69.70;;;;;;5087636;28;19913;-72
2023/05/23 07:23:22;;;;;;;;;;;15.00;69.80;;;;;;5087543;28;20331;-72
2023/05/23 07:25:48;;;;;;;;;;;15.10;69.80;;;;;;5087581;28;20317;-72
2023/05/23 07:28:13;;;;;;;;;;;15.30;69.90;;;;;;5088834;28;19919;-72
2023/05/23 07:30:40;;;;;;;;;;;15.50;70.10;;;;;;5091690;28;20353;-72
2023/05/23 07:33:05;;;;;;;;;;;15.70;70.00;;;;;;5091482;28;20022;-73
2023/05/23 07:35:31;;;;;;;;;;;15.90;70.10;;;;;;5091209;28;20006;-72
2023/05/23 07:37:56;;;;;;;;;;;16.00;70.00;;;;;;5091278;28;19923;-73
2023/05/23 07:40:22;;;;;;;;;;;16.00;70.00;;;;;;5091467;28;20452;-72
2023/05/23 07:42:47;;;;;;;;;;;16.20;70.10;;;;;;5090431;28;19912;-74
2023/05/23 07:45:13;;;;;;;;;;;16.90;71.00;;;;;;5090927;28;20007;-68
2023/05/23 07:47:39;;;;;;;;;;;18.00;71.00;;;;;;5090484;28;19958;-74
2023/05/23 07:50:05;;;;;;;;;;;18.80;70.20;;;;;;5090803;28;19916;-74
2023/05/23 07:52:31;;;;;;;;;;;19.60;70.00;;;;;;5089335;28;20368;-74
2023/05/23 07:54:56;;;;;;;;;;;20.30;70.00;;;;;;5091027;28;19919;-74
2023/05/23 07:57:23;;;;;;;;;;;21.00;70.00;;;;;;5090688;28;20586;-74
2023/05/23 07:59:49;;;;;;;;;;;21.80;70.00;;;;;;5089583;28;20012;-74
2023/05/23 08:02:14;;;;;;;;;;;22.50;69.70;;;;;;5089327;28;20421;-74
2023/05/23 08:04:40;;;;;;;;;;;22.80;69.00;;;;;;5090787;28;19912;-74
2023/05/23 08:07:07;;;;;;;;;;;22.70;68.90;;;;;;5090493;28;20363;-74
2023/05/23 08:09:32;;;;;;;;;;;22.70;69.40;;;;;;5090895;28;19916;-74
2023/05/23 08:11:58;;;;;;;;;;;23.00;69.90;;;;;;5090891;28;19923;-74
2023/05/23 08:14:24;;;;;;;;;;;23.20;69.70;;;;;;5090980;28;19924;-75
2023/05/23 08:16:49;;;;;;;;;;;23.30;70.30;;;;;;5090639;28;20230;-74
2023/05/23 08:19:15;;;;;;;;;;;23.70;70.80;;;;;;5090318;28;19938;-74
2023/05/23 08:21:41;;;;;;;;;;;24.20;71.10;;;;;;5090080;28;19965;-74
2023/05/23 08:24:06;;;;;;;;;;;24.60;71.00;;;;;;5088809;28;19919;-74
2023/05/23 08:26:36;;;;;;;;;;;24.60;70.60;;;;;;5090253;28;19916;-75
2023/05/23 08:29:02;;;;;;;;;;;24.70;71.40;;;;;;5090032;28;20528;-75
2023/05/23 08:31:28;;;;;;;;;;;25.30;72.30;;;;;;5089655;28;19912;-74
2023/05/23 08:33:54;;;;;;;;;;;25.90;71.90;;;;;;5088250;28;20210;-75
2023/05/23 08:36:19;;;;;;;;;;;26.20;72.00;;;;;;5090028;28;20357;-75
2023/05/23 08:38:45;;;;;;;;;;;26.70;72.00;;;;;;5089828;28;19916;-75
2023/05/23 08:41:21;;;;;;;;;;;26.90;72.00;;;;;;5088796;28;20191;-74
2023/05/23 08:43:47;;;;;;;;;;;27.10;71.40;;;;;;5089700;28;19912;-75
2023/05/23 08:46:13;;;;;;;;;;;26.90;71.00;;;;;;5089996;28;19914;-74
2023/05/23 08:48:39;;;;;;;;;;;26.30;70.60;;;;;;5088422;28;19913;-74
2023/05/23 08:51:05;;;;;;;;;;;26.30;71.50;;;;;;5089689;28;19923;-75
2023/05/23 08:53:32;;;;;;;;;;;26.30;71.40;;;;;;5089801;28;20356;-75
2023/05/23 08:56:01;;;;;;;;;;;26.40;72.00;;;;;;5089895;28;19912;-74
2023/05/23 08:58:29;;;;;;;;;;;26.80;72.60;;;;;;5089552;28;19919;-72
2023/05/23 09:00:54;;;;;;;;;;;26.80;71.90;;;;;;5089785;28;20461;-72
2023/05/23 09:03:21;;;;;;;;;;;26.80;72.90;;;;;;5089662;28;19920;-72
2023/05/23 09:05:47;;;;;;;;;;;27.10;73.30;;;;;;5090272;28;20360;-70
2023/05/23 09:08:14;;;;;;;;;;;27.50;73.60;;;;;;5089693;28;20281;-72
2023/05/23 09:10:40;;;;;;;;;;;27.70;73.40;;;;;;5090467;28;19919;-71
2023/05/23 09:13:06;;;;;;;;;;;27.30;73.40;;;;;;5090377;28;20007;-71
2023/05/23 09:15:32;;;;;;;;;;;26.70;72.70;;;;;;5090386;28;19920;-71
2023/05/23 09:18:03;;;;;;;;;;;26.30;72.50;;;;;;5090181;28;19912;-72
2023/05/23 09:20:29;;;;;;;;;;;26.00;73.40;;;;;;5090256;28;20001;-71
2023/05/23 09:22:54;;;;;;;;;;;26.10;72.70;;;;;;5089970;28;19951;-71
2023/05/23 09:25:20;;;;;;;;;;;25.80;72.70;;;;;;5089940;28;19935;-70
2023/05/23 09:27:46;;;;;;;;;;;25.70;73.50;;;;;;5089821;28;20344;-73
2023/05/23 09:30:12;;;;;;;;;;;25.90;73.60;;;;;;5088724;28;20233;-74
2023/05/23 09:32:37;;;;;;;;;;;25.30;73.00;;;;;;5089772;28;19945;-78
2023/05/23 09:35:04;;;;;;;;;;;24.60;73.00;;;;;;5087138;28;20364;-73
2023/05/23 09:37:34;;;;;;;;;;;24.00;73.30;;;;;;5089284;28;19947;-72
2023/05/23 09:40:01;;;;;;;;;;;23.90;74.00;;;;;;5089883;28;20342;-73
2023/05/23 09:42:30;;;;;;;;;;;24.00;74.20;;;;;;5089618;28;20283;-73
2023/05/23 09:44:57;;;;;;;;;;;24.50;74.90;;;;;;5089713;28;19944;-70
2023/05/23 09:47:22;;;;;;;;;;;25.20;75.20;;;;;;5088813;28;20577;-70
2023/05/23 09:49:50;;;;;;;;;;;25.70;74.90;;;;;;5089229;28;19973;-69
2023/05/23 09:52:15;;;;;;;;;;;26.40;75.00;;;;;;5089211;28;19912;-70
2023/05/23 09:54:42;;;;;;;;;;;27.00;74.30;;;;;;5087876;28;19919;-71
2023/05/23 09:57:08;;;;;;;;;;;27.80;74.00;;;;;;5089032;28;19920;-71
2023/05/23 09:59:37;;;;;;;;;;;28.10;73.00;;;;;;5089232;28;19970;-73
2023/05/23 10:02:05;;;;;;;;;;;28.00;72.50;;;;;;5089136;28;19924;-72
2023/05/23 10:04:33;;;;;;;;;;;27.60;73.00;;;;;;5089642;28;19932;-73
2023/05/23 10:07:01;;;;;;;;;;;27.40;73.30;;;;;;5089685;28;19912;-72
2023/05/23 10:09:31;;;;;;;;;;;27.40;73.70;;;;;;5089194;28;20369;-71
2023/05/23 10:11:57;;;;;;;;;;;27.60;73.40;;;;;;5089160;28;19908;-70
2023/05/23 10:14:23;;;;;;;;;;;27.60;73.40;;;;;;5088936;28;19912;-71
2023/05/23 10:16:54;;;;;;;;;;;27.50;73.50;;;;;;5088905;28;20049;-71
2023/05/23 10:19:23;;;;;;;;;;;27.20;73.50;;;;;;5088822;28;20001;-71
2023/05/23 10:21:53;;;;;;;;;;;27.10;73.40;;;;;;5089091;28;19908;-72
2023/05/23 10:24:19;;;;;;;;;;;27.20;73.50;;;;;;5087450;28;19911;-71
2023/05/23 10:26:44;;;;;;;;;;;27.50;73.50;;;;;;5088660;28;19908;-71
2023/05/23 10:29:10;;;;;;;;;;;27.60;72.80;;;;;;5088526;28;19918;-72
2023/05/23 10:31:36;;;;;;;;;;;27.70;72.50;;;;;;5088137;28;19934;-71
2023/05/23 10:34:13;;;;;;;;;;;27.70;72.60;;;;;;5088823;28;20291;-72
2023/05/23 10:36:54;;;;;;;;;;;27.70;72.80;;;;;;5088654;28;19911;-72
2023/05/23 10:39:38;;;;;;;;;;;27.90;73.80;;;;;;5089057;28;20330;-73
2023/05/23 10:42:09;;;;;;;;;;;28.30;73.70;;;;;;5089115;28;20201;-72
2023/05/23 10:44:35;;;;;;;;;;;28.20;74.00;;;;;;5088898;28;19912;-71
2023/05/23 10:47:03;;;;;;;;;;;28.20;74.10;;;;;;5087178;28;20303;-70
2023/05/23 10:49:38;;;;;;;;;;;28.10;73.80;;;;;;5088470;28;19962;-71
2023/05/23 10:52:06;;;;;;;;;;;28.20;74.00;;;;;;5088043;28;19912;-72
2023/05/23 10:54:45;;;;;;;;;;;28.50;73.70;;;;;;5087923;28;19927;-71
2023/05/23 10:57:15;;;;;;;;;;;29.00;73.80;;;;;;5087498;28;19916;-71
2023/05/23 10:59:41;;;;;;;;;;;29.50;73.60;;;;;;5087455;28;19922;-71
2023/05/23 11:02:16;;;;;;;;;;;29.60;73.30;;;;;;5088585;28;19935;-71
2023/05/23 11:04:42;;;;;;;;;;;29.00;72.40;;;;;;5086842;28;19927;-71
2023/05/23 11:07:26;;;;;;;;;;;28.40;73.30;;;;;;5087410;28;19908;-71
2023/05/23 11:10:10;;;;;;;;;;;28.00;73.90;;;;;;5087956;28;20395;-71
2023/05/23 11:12:41;;;;;;;;;;;28.40;74.70;;;;;;5086144;28;20356;-70
2023/05/23 11:15:15;;;;;;;;;;;29.00;74.50;;;;;;5087748;28;19916;-71
2023/05/23 11:17:49;;;;;;;;;;;29.40;73.90;;;;;;5087715;28;19923;-71
2023/05/23 11:20:15;;;;;;;;;;;29.60;73.40;;;;;;5088362;28;19916;-68
2023/05/23 11:22:51;;;;;;;;;;;30.00;73.50;;;;;;5088758;28;19955;-73
2023/05/23 11:25:19;;;;;;;;;;;30.60;73.80;;;;;;5088128;28;19909;-71
2023/05/23 11:27:45;;;;;;;;;;;30.90;73.50;;;;;;5088292;28;20393;-71
2023/05/23 11:30:15;;;;;;;;;;;30.80;73.50;;;;;;5086543;28;19924;-71
2023/05/23 11:32:41;;;;;;;;;;;30.30;73.70;;;;;;5088087;28;19908;-71
2023/05/23 11:35:08;;;;;;;;;;;29.90;74.40;;;;;;5088208;28;19912;-72
2023/05/23 11:37:33;;;;;;;;;;;29.40;74.40;;;;;;5088601;28;19965;-72
2023/05/23 11:40:19;;;;;;;;;;;28.90;75.00;;;;;;5087699;28;19915;-72
2023/05/23 11:42:44;;;;;;;;;;;28.90;74.80;;;;;;5087925;28;20384;-71
2023/05/23 11:45:10;;;;;;;;;;;29.10;74.20;;;;;;5086505;28;20007;-72
2023/05/23 11:47:41;;;;;;;;;;;29.20;74.20;;;;;;5087806;28;19923;-72
2023/05/23 11:50:07;;;;;;;;;;;29.40;74.30;;;;;;5088172;28;20317;-71
2023/05/23 11:52:33;;;;;;;;;;;29.70;74.20;;;;;;5088268;28;19958;-72
2023/05/23 11:55:00;;;;;;;;;;;30.10;74.00;;;;;;5088051;28;20020;-72
2023/05/23 11:57:26;;;;;;;;;;;30.00;73.60;;;;;;5087734;28;19912;-72
2023/05/23 11:59:52;;;;;;;;;;;29.80;74.30;;;;;;5087398;28;19908;-71
2023/05/23 12:02:19;;;;;;;;;;;29.90;74.70;;;;;;5087778;28;19963;-72
2023/05/23 12:04:45;;;;;;;;;;;30.20;74.30;;;;;;5087466;28;19911;-73
2023/05/23 12:07:11;;;;;;;;;;;30.30;73.90;;;;;;5087656;28;19922;-71
2023/05/23 12:09:43;;;;;;;;;;;30.50;74.10;;;;;;5086329;28;19908;-72
2023/05/23 12:12:09;;;;;;;;;;;30.40;73.60;;;;;;5087522;28;19961;-72
2023/05/23 12:14:35;;;;;;;;;;;30.00;74.50;;;;;;5087268;28;19916;-72
2023/05/23 12:17:00;;;;;;;;;;;30.10;74.70;;;;;;5090820;28;19919;-72
2023/05/23 12:19:26;;;;;;;;;;;30.20;74.30;;;;;;5091161;28;19943;-73
2023/05/23 12:21:52;;;;;;;;;;;30.40;74.40;;;;;;5091036;28;19912;-71
2023/05/23 12:24:21;;;;;;;;;;;30.70;74.50;;;;;;5090570;28;19966;-72
2023/05/23 12:26:51;;;;;;;;;;;31.00;74.30;;;;;;5090729;28;19908;-71
2023/05/23 12:29:21;;;;;;;;;;;31.10;73.80;;;;;;5089726;28;19908;-71
2023/05/23 12:31:50;;;;;;;;;;;31.00;73.70;;;;;;5090710;28;19908;-71
2023/05/23 12:34:16;;;;;;;;;;;30.90;73.40;;;;;;5091081;28;19912;-72
2023/05/23 12:36:43;;;;;;;;;;;30.60;74.10;;;;;;5090980;28;19915;-72
2023/05/23 12:39:09;;;;;;;;;;;30.40;74.50;;;;;;5090230;28;20372;-73
2023/05/23 12:41:35;;;;;;;;;;;30.30;74.50;;;;;;5089689;28;19923;-72
2023/05/23 12:44:01;;;;;;;;;;;30.20;74.10;;;;;;5091165;28;19908;-72
2023/05/23 12:46:27;;;;;;;;;;;30.00;73.50;;;;;;5091213;28;19996;-71
2023/05/23 12:48:52;;;;;;;;;;;29.90;73.40;;;;;;5090890;28;19958;-71
2023/05/23 12:51:18;;;;;;;;;;;29.80;73.30;;;;;;5090869;28;19912;-73
2023/05/23 12:53:44;;;;;;;;;;;29.80;73.30;;;;;;5090684;28;19912;-72
2023/05/23 12:56:10;;;;;;;;;;;29.80;73.30;;;;;;5091152;28;19912;-72
2023/05/23 12:58:35;;;;;;;;;;;29.70;73.10;;;;;;5090995;28;19970;-73
2023/05/23 13:01:02;;;;;;;;;;;29.70;73.20;;;;;;5089309;28;19916;-70
2023/05/23 13:03:31;;;;;;;;;;;29.60;73.10;;;;;;5090225;28;19920;-73
2023/05/23 13:05:57;;;;;;;;;;;29.60;72.70;;;;;;5090591;28;19957;-73
2023/05/23 13:08:22;;;;;;;;;;;29.30;72.50;;;;;;5090602;28;19920;-73
2023/05/23 13:10:48;;;;;;;;;;;29.10;72.70;;;;;;5090475;28;19961;-74
2023/05/23 13:13:14;;;;;;;;;;;29.00;72.90;;;;;;5090478;28;20339;-73
2023/05/23 13:15:40;;;;;;;;;;;28.70;72.20;;;;;;5090509;28;19908;-72
2023/05/23 13:18:05;;;;;;;;;;;28.40;72.10;;;;;;5088958;28;20015;-73
2023/05/23 13:20:31;;;;;;;;;;;28.10;72.10;;;;;;5090690;28;19912;-73
2023/05/23 13:22:57;;;;;;;;;;;27.80;72.30;;;;;;5090586;28;19951;-73
2023/05/23 13:25:22;;;;;;;;;;;27.60;72.20;;;;;;5090136;28;19957;-71
2023/05/23 13:27:48;;;;;;;;;;;27.60;72.40;;;;;;5089829;28;20076;-70
2023/05/23 13:30:14;;;;;;;;;;;27.50;72.30;;;;;;5088434;28;19936;-70
2023/05/23 13:32:40;;;;;;;;;;;27.20;71.70;;;;;;5089982;28;19908;-71
2023/05/23 13:35:06;;;;;;;;;;;26.60;72.10;;;;;;5090135;28;19923;-71
2023/05/23 13:37:32;;;;;;;;;;;26.10;72.70;;;;;;5089452;28;19920;-70
2023/05/23 13:39:57;;;;;;;;;;;25.80;72.90;;;;;;5088950;28;19912;-71
2023/05/23 13:42:23;;;;;;;;;;;25.70;73.20;;;;;;5088798;28;20321;-71
2023/05/23 13:44:49;;;;;;;;;;;25.70;72.80;;;;;;5089133;28;19912;-71
2023/05/23 13:47:14;;;;;;;;;;;25.80;72.30;;;;;;5088521;28;20301;-71
2023/05/23 13:49:40;;;;;;;;;;;25.80;72.20;;;;;;5089134;28;19919;-71
2023/05/23 13:52:06;;;;;;;;;;;25.80;72.10;;;;;;5088115;28;20233;-71
2023/05/23 13:54:32;;;;;;;;;;;25.80;72.00;;;;;;5087341;28;19949;-71
2023/05/23 13:56:58;;;;;;;;;;;25.80;71.80;;;;;;5088460;28;19977;-72
2023/05/23 13:59:26;;;;;;;;;;;25.80;71.60;;;;;;5088100;28;19927;-71
2023/05/23 14:01:52;;;;;;;;;;;25.80;71.50;;;;;;5088702;28;19972;-71
2023/05/23 14:04:18;;;;;;;;;;;25.70;71.10;;;;;;5070878;28;20276;-72
2023/05/23 14:06:43;;;;;;;;;;;25.70;71.00;;;;;;5089614;28;19954;-72
2023/05/23 14:09:10;;;;;;;;;;;25.60;71.00;;;;;;5089429;28;19908;-72
2023/05/23 14:11:35;;;;;;;;;;;25.50;71.10;;;;;;5089579;28;19912;-72
2023/05/23 14:14:01;;;;;;;;;;;25.50;71.10;;;;;;5089854;28;20421;-70